Time;durP1;ratioP1;P1;durP2;ratioP2;P2;SDS_P1;SDS_P2;PMS_P1;PMS_P2;Temp;Humidity;BMP_temperature;BMP_pressure;BME280_temperature;BME280_humidity;BME280_pressure;Samples;Min_cycle;Max_cycle;Signal;HPM_P1;HPM_P2
2022/05/12 00:00:54;;;;;;;12.20;3.03;;;;;;;;;;5017705;28;20033;-76
2022/05/12 00:03:20;;;;;;;8.23;3.17;;;;;;;;;;5012266;28;20464;-75
2022/05/12 00:05:46;;;;;;;8.48;3.17;;;;;;;;;;5013732;28;20067;-75
2022/05/12 00:08:12;;;;;;;6.00;3.05;;;;;;;;;;5016459;28;20045;-75
2022/05/12 00:10:39;;;;;;;5.53;2.90;;;;;;;;;;5018415;28;20038;-75
2022/05/12 00:13:05;;;;;;;6.38;3.05;;;;;;;;;;5013053;28;20129;-75
2022/05/12 00:15:32;;;;;;;7.72;3.75;;;;;;;;;;5014837;28;20038;-75
2022/05/12 00:18:02;;;;;;;8.57;3.45;;;;;;;;;;5016055;28;20040;-76
2022/05/12 00:20:27;;;;;;;11.02;3.15;;;;;;;;;;5018519;28;20025;-75
2022/05/12 00:23:05;;;;;;;6.72;3.08;;;;;;;;;;5019137;28;20623;-75
2022/05/12 00:25:32;;;;;;;6.47;3.08;;;;;;;;;;5016121;28;20042;-75
2022/05/12 00:27:57;;;;;;;8.68;4.45;;;;;;;;;;5019726;28;20038;-75
2022/05/12 00:30:23;;;;;;;12.25;4.43;;;;;;;;;;5011667;28;20045;-75
2022/05/12 00:32:49;;;;;;;10.35;4.10;;;;;;;;;;5015594;28;20595;-75
2022/05/12 00:35:17;;;;;;;10.52;4.53;;;;;;;;;;5016341;28;20128;-76
2022/05/12 00:37:43;;;;;;;8.73;4.05;;;;;;;;;;5018252;28;20057;-76
2022/05/12 00:40:09;;;;;;;9.13;4.00;;;;;;;;;;5013928;28;20146;-75
2022/05/12 00:42:35;;;;;;;10.38;3.80;;;;;;;;;;5015727;28;20069;-75
2022/05/12 00:45:01;;;;;;;8.93;4.60;;;;;;;;;;5013617;28;20029;-75
2022/05/12 00:47:27;;;;;;;8.52;4.68;;;;;;;;;;5012341;28;20727;-75
2022/05/12 00:49:54;;;;;;;10.50;4.10;;;;;;;;;;5017183;28;20040;-75
2022/05/12 00:52:26;;;;;;;11.98;3.95;;;;;;;;;;5015448;28;20115;-75
2022/05/12 00:55:01;;;;;;;8.52;3.88;;;;;;;;;;5015014;28;20033;-75
2022/05/12 00:57:29;;;;;;;7.45;3.58;;;;;;;;;;5013675;28;20034;-75
2022/05/12 00:59:57;;;;;;;9.93;3.75;;;;;;;;;;5015445;28;20033;-75
2022/05/12 01:02:24;;;;;;;8.50;3.13;;;;;;;;;;5015971;28;20191;-75
2022/05/12 01:04:51;;;;;;;7.63;3.35;;;;;;;;;;5019456;28;20113;-75
2022/05/12 01:07:17;;;;;;;11.00;3.53;;;;;;;;;;5014040;28;20062;-76
2022/05/12 01:09:43;;;;;;;9.82;3.40;;;;;;;;;;5018354;28;20399;-75
2022/05/12 01:12:10;;;;;;;8.90;3.55;;;;;;;;;;5013664;28;20136;-75
2022/05/12 01:14:37;;;;;;;8.60;3.33;;;;;;;;;;5014100;28;20053;-75
2022/05/12 01:17:03;;;;;;;6.32;3.78;;;;;;;;;;5018165;28;20026;-76
2022/05/12 01:19:31;;;;;;;9.70;4.00;;;;;;;;;;5012532;28;20093;-75
2022/05/12 01:21:58;;;;;;;12.52;3.70;;;;;;;;;;5011590;28;20076;-75
2022/05/12 01:24:25;;;;;;;7.65;3.70;;;;;;;;;;5009400;28;20431;-75
2022/05/12 01:26:51;;;;;;;10.55;3.65;;;;;;;;;;5021606;28;20037;-75
2022/05/12 01:29:18;;;;;;;9.13;4.00;;;;;;;;;;5014984;28;20040;-75
2022/05/12 01:31:44;;;;;;;7.97;4.00;;;;;;;;;;5017982;28;20040;-75
2022/05/12 01:34:11;;;;;;;9.18;4.28;;;;;;;;;;5014664;28;20034;-75
2022/05/12 01:36:37;;;;;;;7.57;4.00;;;;;;;;;;5011569;28;20037;-76
2022/05/12 01:39:04;;;;;;;8.82;4.00;;;;;;;;;;5012961;28;20041;-75
2022/05/12 01:41:30;;;;;;;8.15;4.40;;;;;;;;;;5015089;28;20030;-75
2022/05/12 01:43:56;;;;;;;10.20;4.25;;;;;;;;;;5018738;28;20034;-76
2022/05/12 01:46:22;;;;;;;11.27;4.72;;;;;;;;;;5019054;28;20034;-75
2022/05/12 01:48:48;;;;;;;10.52;4.57;;;;;;;;;;5017839;28;20824;-76
2022/05/12 01:51:15;;;;;;;10.77;4.28;;;;;;;;;;5023121;28;20108;-76
2022/05/12 01:53:41;;;;;;;7.55;4.18;;;;;;;;;;5019125;28;20091;-75
2022/05/12 01:56:08;;;;;;;9.60;4.57;;;;;;;;;;5017739;28;20042;-75
2022/05/12 01:58:34;;;;;;;11.98;4.65;;;;;;;;;;5017828;28;20099;-75
2022/05/12 02:01:00;;;;;;;10.05;4.65;;;;;;;;;;5015927;28;20026;-75
2022/05/12 02:03:26;;;;;;;10.13;4.45;;;;;;;;;;5021039;28;20034;-75
2022/05/12 02:05:52;;;;;;;9.43;4.07;;;;;;;;;;5020151;28;20060;-75
2022/05/12 02:08:19;;;;;;;7.45;4.10;;;;;;;;;;5020597;28;20038;-75
2022/05/12 02:10:47;;;;;;;12.60;4.30;;;;;;;;;;5016055;28;20029;-76
2022/05/12 02:13:15;;;;;;;10.70;5.13;;;;;;;;;;5016382;28;20113;-75
2022/05/12 02:15:42;;;;;;;12.43;4.40;;;;;;;;;;5020786;28;20063;-75
2022/05/12 02:18:09;;;;;;;9.65;4.13;;;;;;;;;;5021889;28;20455;-76
2022/05/12 02:20:35;;;;;;;8.57;4.10;;;;;;;;;;5020765;28;20069;-75
2022/05/12 02:23:01;;;;;;;9.45;4.20;;;;;;;;;;5018256;28;20814;-76
2022/05/12 02:25:27;;;;;;;8.70;4.25;;;;;;;;;;5018206;28;20049;-76
2022/05/12 02:27:55;;;;;;;10.65;4.50;;;;;;;;;;5021181;28;20076;-75
2022/05/12 02:30:31;;;;;;;7.70;4.32;;;;;;;;;;5015787;28;20033;-76
2022/05/12 02:32:57;;;;;;;10.45;4.38;;;;;;;;;;5017513;28;20040;-75
2022/05/12 02:35:24;;;;;;;11.93;5.05;;;;;;;;;;5023850;28;20033;-75
2022/05/12 02:37:50;;;;;;;11.65;6.10;;;;;;;;;;5025871;28;20057;-75
2022/05/12 02:40:17;;;;;;;7.32;4.65;;;;;;;;;;5014844;28;20740;-75
2022/05/12 02:42:43;;;;;;;13.23;5.30;;;;;;;;;;5018173;28;20808;-75
2022/05/12 02:45:10;;;;;;;12.90;4.95;;;;;;;;;;5017411;28;20825;-75
2022/05/12 02:47:36;;;;;;;10.90;5.03;;;;;;;;;;5014677;28;20375;-76
2022/05/12 02:50:02;;;;;;;14.63;4.78;;;;;;;;;;5014987;28;20042;-75
2022/05/12 02:52:28;;;;;;;13.02;5.00;;;;;;;;;;5010708;28;20034;-75
2022/05/12 02:54:54;;;;;;;7.38;4.35;;;;;;;;;;5015815;28;20108;-75
2022/05/12 02:57:21;;;;;;;10.07;4.93;;;;;;;;;;5019059;28;20534;-76
2022/05/12 02:59:47;;;;;;;13.68;4.78;;;;;;;;;;5016165;28;20033;-75
2022/05/12 03:02:13;;;;;;;12.88;4.88;;;;;;;;;;5020833;28;20120;-76
2022/05/12 03:04:39;;;;;;;9.02;4.93;;;;;;;;;;5016895;28;20109;-75
2022/05/12 03:07:05;;;;;;;11.90;5.40;;;;;;;;;;5017435;28;20491;-74
2022/05/12 03:09:31;;;;;;;11.18;6.25;;;;;;;;;;5008973;28;20030;-75
2022/05/12 03:11:57;;;;;;;14.50;6.18;;;;;;;;;;5013988;28;20121;-75
2022/05/12 03:14:23;;;;;;;11.80;5.70;;;;;;;;;;5016295;28;20124;-75
2022/05/12 03:16:53;;;;;;;13.10;6.68;;;;;;;;;;5015497;28;20554;-75
2022/05/12 03:19:19;;;;;;;13.00;6.93;;;;;;;;;;5015836;28;20037;-75
2022/05/12 03:21:46;;;;;;;11.85;6.78;;;;;;;;;;5015492;28;20056;-74
2022/05/12 03:24:12;;;;;;;12.93;6.65;;;;;;;;;;5013695;28;20120;-75
2022/05/12 03:26:38;;;;;;;12.77;7.22;;;;;;;;;;5018307;28;20033;-75
2022/05/12 03:29:04;;;;;;;11.77;6.55;;;;;;;;;;5013075;28;20552;-75
2022/05/12 03:31:30;;;;;;;12.00;6.30;;;;;;;;;;5020344;28;20033;-75
2022/05/12 03:33:56;;;;;;;10.70;6.28;;;;;;;;;;5014162;28;20034;-75
2022/05/12 03:36:22;;;;;;;12.02;6.65;;;;;;;;;;5013110;28;20063;-75
2022/05/12 03:38:48;;;;;;;12.88;5.97;;;;;;;;;;5016008;28;20551;-75
2022/05/12 03:41:14;;;;;;;15.02;6.10;;;;;;;;;;5022022;28;20520;-75
2022/05/12 03:46:25;;;;;;;11.18;7.63;;;;;;;;;;5013290;28;20084;-75
2022/05/12 03:48:51;;;;;;;12.23;6.30;;;;;;;;;;5021679;28;20384;-75
2022/05/12 03:51:17;;;;;;;11.93;6.20;;;;;;;;;;5010528;28;20065;-75
2022/05/12 03:53:43;;;;;;;10.93;5.75;;;;;;;;;;5019940;28;20072;-76
2022/05/12 03:56:09;;;;;;;11.40;5.95;;;;;;;;;;5012481;28;20037;-75
2022/05/12 03:58:36;;;;;;;11.35;5.15;;;;;;;;;;5022515;28;20026;-75
2022/05/12 04:01:03;;;;;;;11.13;5.88;;;;;;;;;;5012000;28;20113;-75
2022/05/12 04:03:29;;;;;;;10.75;5.30;;;;;;;;;;5010493;28;20034;-75
2022/05/12 04:05:55;;;;;;;11.70;5.00;;;;;;;;;;5008210;28;20492;-75
2022/05/12 04:08:22;;;;;;;12.63;5.75;;;;;;;;;;5016067;28;20395;-75
2022/05/12 04:10:49;;;;;;;11.80;4.82;;;;;;;;;;5014820;28;20040;-75
2022/05/12 04:13:16;;;;;;;10.18;4.65;;;;;;;;;;5015414;28;20030;-76
2022/05/12 04:15:42;;;;;;;10.98;5.47;;;;;;;;;;5013620;28;20038;-76
2022/05/12 04:18:08;;;;;;;15.27;8.15;;;;;;;;;;5019279;28;20109;-75
2022/05/12 04:20:36;;;;;;;17.45;8.98;;;;;;;;;;5019328;28;20109;-75
2022/05/12 04:23:02;;;;;;;16.23;7.68;;;;;;;;;;5016204;28;20032;-75
2022/05/12 04:25:28;;;;;;;14.93;8.57;;;;;;;;;;5013499;28;20097;-75
2022/05/12 04:27:54;;;;;;;10.93;7.10;;;;;;;;;;5018004;28;20117;-75
2022/05/12 04:30:24;;;;;;;10.85;6.60;;;;;;;;;;5013402;28;20042;-75
2022/05/12 04:32:50;;;;;;;13.82;6.43;;;;;;;;;;5016477;28;20041;-75
2022/05/12 04:35:16;;;;;;;14.48;6.88;;;;;;;;;;5014318;28;20038;-75
2022/05/12 04:37:46;;;;;;;13.38;6.32;;;;;;;;;;5019529;28;20037;-75
2022/05/12 04:40:17;;;;;;;9.18;5.85;;;;;;;;;;5017105;28;20876;-75
2022/05/12 04:42:43;;;;;;;10.55;6.07;;;;;;;;;;5015013;28;20056;-76
2022/05/12 04:45:10;;;;;;;14.30;5.60;;;;;;;;;;5014324;28;20398;-75
2022/05/12 04:47:37;;;;;;;13.98;5.95;;;;;;;;;;5015955;28;20479;-75
2022/05/12 04:50:03;;;;;;;10.52;5.22;;;;;;;;;;5005965;28;20479;-75
2022/05/12 04:52:29;;;;;;;13.32;6.10;;;;;;;;;;5014273;28;20116;-76
2022/05/12 04:54:55;;;;;;;12.45;5.80;;;;;;;;;;5014181;28;20547;-75
2022/05/12 04:57:22;;;;;;;10.43;4.55;;;;;;;;;;5018966;28;20034;-75
2022/05/12 04:59:51;;;;;;;9.10;4.45;;;;;;;;;;5014319;28;20025;-75
2022/05/12 05:02:17;;;;;;;13.32;4.60;;;;;;;;;;5014509;28;20061;-75
2022/05/12 05:04:43;;;;;;;11.98;4.80;;;;;;;;;;5015454;28;20057;-75
2022/05/12 05:07:10;;;;;;;13.60;4.95;;;;;;;;;;5013250;28;20446;-75
2022/05/12 05:09:37;;;;;;;13.65;4.53;;;;;;;;;;5013766;28;20033;-75
2022/05/12 05:12:03;;;;;;;11.88;5.15;;;;;;;;;;5010060;28;20037;-76
2022/05/12 05:14:29;;;;;;;8.45;4.75;;;;;;;;;;5017405;28;20034;-75
2022/05/12 05:16:55;;;;;;;12.60;4.55;;;;;;;;;;5014495;28;20029;-75
2022/05/12 05:19:21;;;;;;;9.23;4.18;;;;;;;;;;5021087;28;20459;-76
2022/05/12 05:21:47;;;;;;;12.82;5.30;;;;;;;;;;5024977;28;20041;-75
2022/05/12 05:24:13;;;;;;;11.80;4.40;;;;;;;;;;5024751;28;20037;-75
2022/05/12 05:26:39;;;;;;;8.60;3.90;;;;;;;;;;5021359;28;20483;-75
2022/05/12 05:29:05;;;;;;;15.15;4.10;;;;;;;;;;5021200;28;20079;-76
2022/05/12 05:31:31;;;;;;;12.85;4.07;;;;;;;;;;5025418;28;20034;-75
2022/05/12 05:33:57;;;;;;;15.35;4.70;;;;;;;;;;5024381;28;20045;-75
2022/05/12 05:36:24;;;;;;;10.43;4.50;;;;;;;;;;5025384;28;20511;-76
2022/05/12 05:38:50;;;;;;;16.38;3.85;;;;;;;;;;5022775;28;20030;-76
2022/05/12 05:41:16;;;;;;;11.30;4.20;;;;;;;;;;5021108;28;20079;-75
2022/05/12 05:43:42;;;;;;;11.82;4.55;;;;;;;;;;5023928;28;20036;-76
2022/05/12 05:46:08;;;;;;;6.88;3.88;;;;;;;;;;5019449;28;20033;-75
2022/05/12 05:48:34;;;;;;;13.60;4.80;;;;;;;;;;5019204;28;20383;-75
2022/05/12 05:53:45;;;;;;;13.23;4.53;;;;;;;;;;5016827;28;20632;-76
2022/05/12 05:56:14;;;;;;;11.07;4.28;;;;;;;;;;5020552;28;20030;-76
2022/05/12 05:58:41;;;;;;;14.82;4.20;;;;;;;;;;5016268;28;20033;-76
2022/05/12 06:01:07;;;;;;;8.63;4.22;;;;;;;;;;5026748;28;20092;-76
2022/05/12 06:03:33;;;;;;;13.82;4.07;;;;;;;;;;5015664;28;20038;-75
2022/05/12 06:05:59;;;;;;;14.07;4.10;;;;;;;;;;5018347;28;20049;-75
2022/05/12 06:08:25;;;;;;;15.77;4.47;;;;;;;;;;5021096;28;20810;-75
2022/05/12 06:10:51;;;;;;;12.40;3.95;;;;;;;;;;5018658;28;20042;-75
2022/05/12 06:13:17;;;;;;;15.10;4.25;;;;;;;;;;5018889;28;20037;-76
2022/05/12 06:15:43;;;;;;;9.07;3.90;;;;;;;;;;5015265;28;20033;-76
2022/05/12 06:18:14;;;;;;;8.60;3.67;;;;;;;;;;5025203;28;20415;-76
2022/05/12 06:20:41;;;;;;;9.27;3.40;;;;;;;;;;5023197;28;20030;-76
2022/05/12 06:23:08;;;;;;;8.18;3.00;;;;;;;;;;5022668;28;20471;-75
2022/05/12 06:25:34;;;;;;;9.43;3.55;;;;;;;;;;5025314;28;20791;-76
2022/05/12 06:28:00;;;;;;;13.13;3.53;;;;;;;;;;5019702;28;20051;-75
2022/05/12 06:30:29;;;;;;;11.57;3.30;;;;;;;;;;5016611;28;20026;-76
2022/05/12 06:32:56;;;;;;;13.23;3.75;;;;;;;;;;5013940;28;20068;-76
2022/05/12 06:35:22;;;;;;;7.93;2.72;;;;;;;;;;5019071;28;20026;-76
2022/05/12 06:37:48;;;;;;;15.27;3.30;;;;;;;;;;5018731;28;20072;-76
2022/05/12 06:40:14;;;;;;;11.10;2.90;;;;;;;;;;5016008;28;20022;-76
2022/05/12 06:42:41;;;;;;;8.23;3.40;;;;;;;;;;5019913;28;20041;-76
2022/05/12 06:45:08;;;;;;;10.27;3.80;;;;;;;;;;5019452;28;20072;-76
2022/05/12 06:47:34;;;;;;;8.23;3.25;;;;;;;;;;5016061;28;20041;-76
2022/05/12 06:50:02;;;;;;;14.45;3.42;;;;;;;;;;5018723;28;20045;-76
2022/05/12 06:52:28;;;;;;;11.38;2.60;;;;;;;;;;5019631;28;20091;-76
2022/05/12 06:54:55;;;;;;;15.55;3.13;;;;;;;;;;5017711;28;20057;-76
2022/05/12 06:57:22;;;;;;;8.82;2.55;;;;;;;;;;5018822;28;20042;-76
2022/05/12 06:59:49;;;;;;;9.38;2.72;;;;;;;;;;5015633;28;20022;-76
2022/05/12 07:02:15;;;;;;;7.10;2.10;;;;;;;;;;5014396;28;20514;-76
2022/05/12 07:04:45;;;;;;;7.43;1.98;;;;;;;;;;5018558;28;20033;-76
2022/05/12 07:07:11;;;;;;;9.30;2.05;;;;;;;;;;5014390;28;20149;-76
2022/05/12 07:09:37;;;;;;;5.30;2.03;;;;;;;;;;5019714;28;20112;-76
2022/05/12 07:12:04;;;;;;;7.45;2.00;;;;;;;;;;5015358;28;20049;-76
2022/05/12 07:14:31;;;;;;;12.57;3.25;;;;;;;;;;5015932;28;20037;-76
2022/05/12 07:16:57;;;;;;;7.43;2.30;;;;;;;;;;5010374;28;20118;-76
2022/05/12 07:19:23;;;;;;;9.52;2.28;;;;;;;;;;5017593;28;20403;-76
2022/05/12 07:27:19;;;;;;;6.90;1.92;;;;;;;;;;5016509;28;20057;-76
2022/05/12 07:29:45;;;;;;;6.80;2.22;;;;;;;;;;5021496;28;20148;-76
2022/05/12 07:32:13;;;;;;;7.97;2.08;;;;;;;;;;5015724;28;20099;-76
2022/05/12 07:34:40;;;;;;;9.05;2.33;;;;;;;;;;5016123;28;20024;-76
2022/05/12 07:37:06;;;;;;;8.18;2.30;;;;;;;;;;5015054;28;20038;-76
2022/05/12 07:39:33;;;;;;;11.98;2.38;;;;;;;;;;5013531;28;20052;-76
2022/05/12 07:42:00;;;;;;;9.52;2.30;;;;;;;;;;5013935;28;20455;-75
2022/05/12 07:44:32;;;;;;;11.52;2.85;;;;;;;;;;5014001;28;20041;-76
2022/05/12 07:47:00;;;;;;;7.72;1.80;;;;;;;;;;5017410;28;20037;-76
2022/05/12 07:49:28;;;;;;;7.57;2.28;;;;;;;;;;5016651;28;20463;-76
2022/05/12 07:51:54;;;;;;;7.25;2.38;;;;;;;;;;5022063;28;20033;-77
2022/05/12 07:54:20;;;;;;;6.85;2.40;;;;;;;;;;5017606;28;20041;-76
2022/05/12 07:56:46;;;;;;;5.25;2.28;;;;;;;;;;5017148;28;20788;-76
2022/05/12 07:59:12;;;;;;;8.75;2.60;;;;;;;;;;5012645;28;20038;-76
2022/05/12 08:01:38;;;;;;;8.10;2.03;;;;;;;;;;5013916;28;20029;-76
2022/05/12 08:04:05;;;;;;;12.73;2.70;;;;;;;;;;5015438;28;20038;-76
2022/05/12 08:06:31;;;;;;;8.05;2.58;;;;;;;;;;5018933;28;20529;-76
2022/05/12 08:08:57;;;;;;;6.78;2.35;;;;;;;;;;5019747;28;20037;-77
2022/05/12 08:11:24;;;;;;;8.13;2.17;;;;;;;;;;5011000;28;20366;-76
2022/05/12 08:13:50;;;;;;;10.13;2.65;;;;;;;;;;5013739;28;20037;-75
2022/05/12 08:16:17;;;;;;;8.40;2.08;;;;;;;;;;5015862;28;20069;-76
2022/05/12 08:18:45;;;;;;;8.57;1.80;;;;;;;;;;5024486;28;20049;-76
2022/05/12 08:21:12;;;;;;;7.03;1.75;;;;;;;;;;5016344;28;20065;-76
2022/05/12 08:23:38;;;;;;;7.72;2.60;;;;;;;;;;5015430;28;20066;-76
2022/05/12 08:26:04;;;;;;;8.98;1.92;;;;;;;;;;5020874;28;20064;-76
2022/05/12 08:28:30;;;;;;;7.07;2.42;;;;;;;;;;5012475;28;20056;-76
2022/05/12 08:30:57;;;;;;;8.45;1.90;;;;;;;;;;5011750;28;20380;-76
2022/05/12 08:33:23;;;;;;;6.03;2.15;;;;;;;;;;5017914;28;20731;-76
2022/05/12 08:35:49;;;;;;;3.80;1.75;;;;;;;;;;5013878;28;20034;-76
2022/05/12 08:38:16;;;;;;;10.90;2.88;;;;;;;;;;5012356;28;20037;-76
2022/05/12 08:40:45;;;;;;;10.52;1.85;;;;;;;;;;5021789;28;20025;-76
2022/05/12 08:43:16;;;;;;;4.90;1.70;;;;;;;;;;5009742;28;20116;-76
2022/05/12 08:45:42;;;;;;;7.55;1.40;;;;;;;;;;5023844;28;20029;-75
2022/05/12 08:48:10;;;;;;;6.93;1.58;;;;;;;;;;5016063;28;20052;-76
2022/05/12 08:50:36;;;;;;;6.22;1.83;;;;;;;;;;5019824;28;20033;-76
2022/05/12 08:53:05;;;;;;;6.10;1.80;;;;;;;;;;5013213;28;20034;-76
2022/05/12 08:55:31;;;;;;;9.18;1.70;;;;;;;;;;5017067;28;20041;-76
2022/05/12 08:58:15;;;;;;;8.48;1.83;;;;;;;;;;5012984;28;20038;-76
2022/05/12 09:00:45;;;;;;;6.88;1.85;;;;;;;;;;5019195;28;20026;-76
2022/05/12 09:03:17;;;;;;;7.93;1.88;;;;;;;;;;5012240;28;20384;-76
2022/05/12 09:05:46;;;;;;;7.10;1.88;;;;;;;;;;5015882;28;20081;-76
2022/05/12 09:08:31;;;;;;;6.63;1.80;;;;;;;;;;5010509;28;20580;-76
2022/05/12 09:11:04;;;;;;;6.28;1.75;;;;;;;;;;5016812;28;20041;-76
2022/05/12 09:13:50;;;;;;;7.40;1.90;;;;;;;;;;5011427;28;20444;-76
2022/05/12 09:16:19;;;;;;;7.22;2.05;;;;;;;;;;5012868;28;20036;-76
2022/05/12 09:18:45;;;;;;;12.98;2.25;;;;;;;;;;5017069;28;20025;-77
2022/05/12 09:21:15;;;;;;;9.30;2.35;;;;;;;;;;5012155;28;20067;-76
2022/05/12 09:23:41;;;;;;;7.60;2.17;;;;;;;;;;5015760;28;20132;-76
2022/05/12 09:26:35;;;;;;;10.73;2.13;;;;;;;;;;5017194;28;20826;-76
2022/05/12 09:29:27;;;;;;;8.55;2.40;;;;;;;;;;5013766;28;20038;-76
2022/05/12 09:31:53;;;;;;;8.48;1.80;;;;;;;;;;5015573;28;20050;-76
2022/05/12 09:34:32;;;;;;;10.23;2.03;;;;;;;;;;5015264;28;20505;-76
2022/05/12 09:37:21;;;;;;;9.27;2.53;;;;;;;;;;5014588;28;20041;-76
2022/05/12 09:39:52;;;;;;;8.63;2.20;;;;;;;;;;5015989;28;20702;-76
2022/05/12 09:42:29;;;;;;;6.10;1.58;;;;;;;;;;5013227;28;20125;-77
2022/05/12 09:44:57;;;;;;;4.88;1.42;;;;;;;;;;5016768;28;20639;-76
2022/05/12 09:47:23;;;;;;;6.25;1.40;;;;;;;;;;5019186;28;20037;-76
2022/05/12 09:49:50;;;;;;;6.65;1.50;;;;;;;;;;5023034;28;20029;-76
2022/05/12 09:52:37;;;;;;;4.63;1.63;;;;;;;;;;5012388;28;20038;-77
2022/05/12 09:55:21;;;;;;;3.72;1.20;;;;;;;;;;5016649;28;20486;-76
2022/05/12 09:57:50;;;;;;;7.65;1.48;;;;;;;;;;5020785;28;20051;-76
2022/05/12 10:00:38;;;;;;;9.75;1.50;;;;;;;;;;5014713;28;20048;-76
2022/05/12 10:09:21;;;;;;;7.70;1.13;;;;;;;;;;5020880;28;20751;-77
2022/05/12 10:11:53;;;;;;;5.78;1.63;;;;;;;;;;5024566;28;20041;-76
2022/05/12 10:14:24;;;;;;;4.95;1.35;;;;;;;;;;5018398;28;20160;-76
2022/05/12 10:16:51;;;;;;;4.93;1.27;;;;;;;;;;5014056;28;20057;-76
2022/05/12 10:19:22;;;;;;;6.03;1.50;;;;;;;;;;5021540;28;20100;-76
2022/05/12 10:21:52;;;;;;;7.33;1.63;;;;;;;;;;5015597;28;20060;-76
2022/05/12 10:24:18;;;;;;;5.95;1.48;;;;;;;;;;5017930;28;20116;-76
2022/05/12 10:26:44;;;;;;;8.88;1.45;;;;;;;;;;5012868;28;20036;-76
2022/05/12 10:29:28;;;;;;;4.95;1.27;;;;;;;;;;5016882;28;20041;-77
2022/05/12 10:32:03;;;;;;;5.80;1.95;;;;;;;;;;5014787;28;20026;-76
2022/05/12 10:34:44;;;;;;;4.93;1.70;;;;;;;;;;5021304;28;20074;-76
2022/05/12 10:37:19;;;;;;;7.55;1.63;;;;;;;;;;5022492;28;20037;-76
2022/05/12 10:39:52;;;;;;;8.70;1.63;;;;;;;;;;5013696;28;20049;-76
2022/05/12 10:42:32;;;;;;;8.10;1.77;;;;;;;;;;5014879;28;20065;-76
2022/05/12 10:45:04;;;;;;;4.90;1.55;;;;;;;;;;5011968;28;20034;-76
2022/05/12 10:47:47;;;;;;;5.38;1.45;;;;;;;;;;5018233;28;20026;-76
2022/05/12 10:50:22;;;;;;;6.05;1.23;;;;;;;;;;5015607;28;20029;-76
2022/05/12 10:52:54;;;;;;;3.78;1.25;;;;;;;;;;5016009;28;20072;-76
2022/05/12 10:55:23;;;;;;;7.70;1.73;;;;;;;;;;5017419;28;20034;-76
2022/05/12 10:57:52;;;;;;;6.47;1.25;;;;;;;;;;5018115;28;20041;-76
2022/05/12 11:00:36;;;;;;;5.25;1.48;;;;;;;;;;5021010;28;20037;-76
2022/05/12 11:03:09;;;;;;;3.92;1.30;;;;;;;;;;5020775;28;20588;-76
2022/05/12 11:05:39;;;;;;;5.25;1.33;;;;;;;;;;5016550;28;20096;-75
2022/05/12 11:08:05;;;;;;;11.10;1.50;;;;;;;;;;5018475;28;20068;-76
2022/05/12 11:10:34;;;;;;;4.35;1.27;;;;;;;;;;5017652;28;20057;-76
2022/05/12 11:13:08;;;;;;;5.85;1.30;;;;;;;;;;5015119;28;20030;-77
2022/05/12 11:16:10;;;;;;;7.10;1.45;;;;;;;;;;5020115;28;20033;-76
2022/05/12 11:18:41;;;;;;;6.32;1.70;;;;;;;;;;5016506;28;20112;-76
2022/05/12 11:21:29;;;;;;;8.43;1.80;;;;;;;;;;5020286;28;20476;-77
2022/05/12 11:23:58;;;;;;;11.27;2.20;;;;;;;;;;5015905;28;20743;-77
2022/05/12 11:26:39;;;;;;;5.40;1.55;;;;;;;;;;5017157;28;20120;-77
2022/05/12 11:32:27;;;;;;;7.80;1.65;;;;;;;;;;5017272;28;20502;-76
2022/05/12 11:34:56;;;;;;;7.50;1.60;;;;;;;;;;5022511;28;20044;-76
2022/05/12 11:37:36;;;;;;;5.32;1.73;;;;;;;;;;5018330;28;20179;-76
2022/05/12 11:40:10;;;;;;;5.70;1.23;;;;;;;;;;5014810;28;20064;-77
2022/05/12 11:45:42;;;;;;;4.07;1.10;;;;;;;;;;5014594;28;20088;-76
2022/05/12 11:48:08;;;;;;;4.80;1.27;;;;;;;;;;5013049;28;20482;-76
2022/05/12 11:50:41;;;;;;;4.90;1.30;;;;;;;;;;5018128;28;20033;-76
2022/05/12 11:53:13;;;;;;;5.35;1.30;;;;;;;;;;5013395;28;20040;-76
2022/05/12 11:55:58;;;;;;;5.05;1.40;;;;;;;;;;5018852;28;20041;-76
2022/05/12 11:58:32;;;;;;;5.18;1.23;;;;;;;;;;5017530;28;20041;-76
2022/05/12 12:00:59;;;;;;;6.03;1.20;;;;;;;;;;5014822;28;20041;-76
2022/05/12 12:03:25;;;;;;;5.88;1.27;;;;;;;;;;5017261;28;20032;-76
2022/05/12 12:05:51;;;;;;;7.68;1.35;;;;;;;;;;5016053;28;20057;-76
2022/05/12 12:08:32;;;;;;;4.05;1.30;;;;;;;;;;5018750;28;20083;-76
2022/05/12 12:11:25;;;;;;;5.13;1.50;;;;;;;;;;5019824;28;20045;-76
2022/05/12 12:13:55;;;;;;;9.10;1.60;;;;;;;;;;5014103;28;20038;-76
2022/05/12 12:16:26;;;;;;;5.57;1.40;;;;;;;;;;5013842;28;20096;-76
2022/05/12 12:19:01;;;;;;;12.17;1.57;;;;;;;;;;5013290;28;20033;-76
2022/05/12 12:21:39;;;;;;;6.38;1.55;;;;;;;;;;5014377;28;20037;-76
2022/05/12 12:24:08;;;;;;;7.13;1.50;;;;;;;;;;5017077;28;20036;-76
2022/05/12 12:26:37;;;;;;;6.32;1.40;;;;;;;;;;5013323;28;20511;-77
2022/05/12 12:29:08;;;;;;;5.22;1.60;;;;;;;;;;5018584;28;20449;-77
2022/05/12 12:31:37;;;;;;;6.97;1.55;;;;;;;;;;5017021;28;20052;-76
2022/05/12 12:34:23;;;;;;;6.05;1.60;;;;;;;;;;5014968;28;20403;-76
2022/05/12 12:36:51;;;;;;;9.68;1.88;;;;;;;;;;5013547;28;20672;-76
2022/05/12 12:39:38;;;;;;;6.65;2.45;;;;;;;;;;5016726;28;20040;-76
2022/05/12 12:42:22;;;;;;;7.45;2.13;;;;;;;;;;5009608;28;20168;-76
2022/05/12 12:44:56;;;;;;;7.28;1.88;;;;;;;;;;5014628;28;20117;-76
2022/05/12 12:47:27;;;;;;;7.40;1.85;;;;;;;;;;5013600;28;20041;-74
2022/05/12 12:49:53;;;;;;;;;;;;;;;;;;5013554;28;20053;-75
2022/05/12 12:52:20;;;;;;;5.97;1.58;;;;;;;;;;5016926;28;20721;-74
2022/05/12 12:57:44;;;;;;;7.90;1.70;;;;;;;;;;5017458;28;20047;-74
2022/05/12 13:00:14;;;;;;;8.25;1.65;;;;;;;;;;5014904;28;20096;-75
2022/05/12 13:02:42;;;;;;;6.57;1.55;;;;;;;;;;5014365;28;20044;-75
2022/05/12 13:05:11;;;;;;;7.18;1.70;;;;;;;;;;5015349;28;20038;-75
2022/05/12 13:07:38;;;;;;;5.50;1.48;;;;;;;;;;5024185;28;20423;-75
2022/05/12 13:10:06;;;;;;;5.22;1.65;;;;;;;;;;5014899;28;20038;-75
2022/05/12 13:12:32;;;;;;;9.68;1.70;;;;;;;;;;5017126;28;20033;-75
2022/05/12 13:15:00;;;;;;;6.40;1.63;;;;;;;;;;5015490;28;20080;-74
2022/05/12 13:17:31;;;;;;;4.90;1.65;;;;;;;;;;5020167;28;20033;-75
2022/05/12 13:20:01;;;;;;;9.05;2.05;;;;;;;;;;5014585;28;20037;-75
2022/05/12 13:22:33;;;;;;;6.22;1.42;;;;;;;;;;5023049;28;20094;-75
2022/05/12 13:24:59;;;;;;;7.75;1.75;;;;;;;;;;5015814;28;20049;-74
2022/05/12 13:27:28;;;;;;;6.05;1.60;;;;;;;;;;5012957;28;20034;-75
2022/05/12 13:29:54;;;;;;;6.13;1.85;;;;;;;;;;5013664;28;20029;-75
2022/05/12 13:32:32;;;;;;;4.93;1.45;;;;;;;;;;5018554;28;20041;-74
2022/05/12 13:35:03;;;;;;;4.80;1.25;;;;;;;;;;5011181;28;20033;-74
2022/05/12 13:37:30;;;;;;;7.30;1.75;;;;;;;;;;5015282;28;20037;-75
2022/05/12 13:39:58;;;;;;;6.32;1.67;;;;;;;;;;5019635;28;20032;-75
2022/05/12 13:42:24;;;;;;;4.65;1.42;;;;;;;;;;5019852;28;20033;-74
2022/05/12 13:44:55;;;;;;;8.35;1.85;;;;;;;;;;5016832;28;20056;-74
2022/05/12 13:47:32;;;;;;;8.98;1.50;;;;;;;;;;5019027;28;20141;-73
2022/05/12 13:49:58;;;;;;;6.35;1.77;;;;;;;;;;5016602;28;20048;-74
2022/05/12 13:52:28;;;;;;;5.30;1.60;;;;;;;;;;5024765;28;20700;-75
2022/05/12 13:54:54;;;;;;;7.88;1.90;;;;;;;;;;5018683;28;20021;-75
2022/05/12 13:57:32;;;;;;;7.50;1.52;;;;;;;;;;5017210;28;20036;-75
2022/05/12 13:59:58;;;;;;;6.25;1.77;;;;;;;;;;5015084;28;20029;-75
2022/05/12 14:02:30;;;;;;;5.82;1.52;;;;;;;;;;5018475;28;20036;-75
2022/05/12 14:05:22;;;;;;;10.77;2.47;;;;;;;;;;5018176;28;20021;-74
2022/05/12 14:08:04;;;;;;;9.23;1.90;;;;;;;;;;5017017;28;20441;-75
2022/05/12 14:10:32;;;;;;;6.97;1.65;;;;;;;;;;5014651;28;20478;-74
2022/05/12 14:21:17;;;;;;;6.68;1.50;;;;;;;;;;5020575;28;20099;-74
2022/05/12 14:23:43;;;;;;;8.27;1.75;;;;;;;;;;5016619;28;20132;-74
2022/05/12 14:26:09;;;;;;;7.30;1.80;;;;;;;;;;5018493;28;20102;-74
2022/05/12 14:28:35;;;;;;;7.15;1.75;;;;;;;;;;5017187;28;20155;-74
2022/05/12 14:31:02;;;;;;;5.28;1.55;;;;;;;;;;5015588;28;20888;-75
2022/05/12 14:33:29;;;;;;;11.10;1.83;;;;;;;;;;5018196;28;20041;-75
2022/05/12 14:35:56;;;;;;;9.82;1.77;;;;;;;;;;5015569;28;20059;-75
2022/05/12 14:38:24;;;;;;;9.60;1.70;;;;;;;;;;5013965;28;20438;-75
2022/05/12 14:40:50;;;;;;;5.25;1.58;;;;;;;;;;5024341;28;20489;-74
2022/05/12 14:43:16;;;;;;;8.48;1.50;;;;;;;;;;5013440;28;20360;-74
2022/05/12 14:45:42;;;;;;;7.60;1.35;;;;;;;;;;5015065;28;20053;-74
2022/05/12 14:48:08;;;;;;;7.40;1.67;;;;;;;;;;5020648;28;20048;-74
2022/05/12 14:50:35;;;;;;;7.60;1.50;;;;;;;;;;5022313;28;20072;-75
2022/05/12 14:53:08;;;;;;;9.82;1.70;;;;;;;;;;5013930;28;20041;-74
2022/05/12 14:55:34;;;;;;;10.13;2.10;;;;;;;;;;5022232;28;20034;-74
2022/05/12 14:58:00;;;;;;;11.52;2.00;;;;;;;;;;5020005;28;20033;-74
2022/05/12 15:00:26;;;;;;;6.57;1.88;;;;;;;;;;5018696;28;20036;-74
2022/05/12 15:02:52;;;;;;;7.32;2.10;;;;;;;;;;5018672;28;20046;-75
2022/05/12 15:05:20;;;;;;;8.52;1.90;;;;;;;;;;5014049;28;20375;-74
2022/05/12 15:07:46;;;;;;;10.38;1.70;;;;;;;;;;5026173;28;20044;-74
2022/05/12 15:10:12;;;;;;;11.02;1.88;;;;;;;;;;5018104;28;20080;-74
2022/05/12 15:12:39;;;;;;;6.07;1.95;;;;;;;;;;5016741;28;20368;-74
2022/05/12 15:15:05;;;;;;;9.65;1.90;;;;;;;;;;5014390;28;20038;-74
2022/05/12 15:17:33;;;;;;;8.07;1.63;;;;;;;;;;5021940;28;20033;-74
2022/05/12 15:20:04;;;;;;;6.03;1.30;;;;;;;;;;5014227;28;20137;-74
2022/05/12 15:22:30;;;;;;;5.80;2.17;;;;;;;;;;5013167;28;20145;-74